Time;durP1;ratioP1;P1;durP2;ratioP2;P2;SDS_P1;SDS_P2;PMS_P1;PMS_P2;Temp;Humidity;BMP_temperature;BMP_pressure;BME280_temperature;BME280_humidity;BME280_pressure;Samples;Min_cycle;Max_cycle;Signal;HPM_P1;HPM_P2
2022/12/09 00:00:06;;;;;;;95.28;23.27;;;;;;;-0.02;100.00;100258.88;7395983;19;20481;-68
2022/12/09 00:02:37;;;;;;;86.13;22.02;;;;;;;-0.03;100.00;100262.28;7396253;19;20035;-68
2022/12/09 00:05:06;;;;;;;94.47;22.60;;;;;;;-0.05;100.00;100263.97;7396665;19;20086;-68
2022/12/09 00:07:36;;;;;;;150.45;24.70;;;;;;;-0.06;100.00;100272.59;7394397;19;20023;-67
2022/12/09 00:10:05;;;;;;;111.57;24.08;;;;;;;-0.09;100.00;100264.78;7396070;19;20014;-68
2022/12/09 00:12:33;;;;;;;110.43;24.17;;;;;;;-0.11;100.00;100261.34;7395772;19;20026;-68
2022/12/09 00:15:02;;;;;;;101.18;22.85;;;;;;;-0.12;100.00;100269.91;7395844;19;20031;-68
2022/12/09 00:17:32;;;;;;;98.43;23.33;;;;;;;-0.14;100.00;100266.44;7393675;19;20555;-68
2022/12/09 00:20:03;;;;;;;115.05;22.42;;;;;;;-0.15;100.00;100264.69;7395576;19;20022;-68
2022/12/09 00:22:31;;;;;;;89.40;22.02;;;;;;;-0.19;100.00;100267.25;7396218;19;20031;-68
2022/12/09 00:25:00;;;;;;;91.50;20.83;;;;;;;-0.20;100.00;100269.81;7395669;19;20367;-67
2022/12/09 00:27:28;;;;;;;109.40;20.30;;;;;;;-0.23;100.00;100267.16;7393876;19;20023;-68
2022/12/09 00:29:57;;;;;;;90.18;19.85;;;;;;;-0.24;100.00;100276.63;7393793;19;20082;-68
2022/12/09 00:32:26;;;;;;;87.95;20.63;;;;;;;-0.26;100.00;100269.72;7395375;19;20086;-68
2022/12/09 00:34:54;;;;;;;128.02;21.08;;;;;;;-0.28;100.00;100266.22;7394927;19;20516;-68
2022/12/09 00:37:25;;;;;;;70.50;19.77;;;;;;;-0.28;100.00;100268.81;7393164;19;20023;-67
2022/12/09 00:39:54;;;;;;;71.82;18.77;;;;;;;-0.28;100.00;100269.66;7393640;19;20031;-68
2022/12/09 00:42:22;;;;;;;65.60;18.40;;;;;;;-0.29;100.00;100274.81;7393398;19;20077;-68
2022/12/09 00:44:50;;;;;;;70.72;20.00;;;;;;;-0.30;100.00;100285.97;7394860;19;20422;-68
2022/12/09 00:47:19;;;;;;;47.58;18.27;;;;;;;-0.30;100.00;100283.38;7393658;19;20025;-68
2022/12/09 00:49:47;;;;;;;55.85;18.75;;;;;;;-0.31;100.00;100274.78;7395158;19;20074;-68
2022/12/09 00:52:16;;;;;;;74.15;18.80;;;;;;;-0.30;100.00;100283.38;7394741;19;20033;-68
2022/12/09 00:54:47;;;;;;;59.08;19.83;;;;;;;-0.34;100.00;100278.19;7393237;19;20026;-68
2022/12/09 00:57:15;;;;;;;67.88;17.75;;;;;;;-0.33;100.00;100281.63;7393093;19;20078;-68
2022/12/09 00:59:44;;;;;;;62.95;22.83;;;;;;;-0.34;100.00;100285.94;7393089;19;20073;-68
2022/12/09 01:02:12;;;;;;;59.30;19.70;;;;;;;-0.35;100.00;100284.19;7394888;19;20078;-68
2022/12/09 01:04:41;;;;;;;55.25;18.80;;;;;;;-0.36;100.00;100281.59;7392453;19;20501;-68
2022/12/09 01:07:11;;;;;;;58.22;19.05;;;;;;;-0.39;100.00;100289.25;7393164;19;20018;-68
2022/12/09 01:09:39;;;;;;;39.72;17.42;;;;;;;-0.41;100.00;100285.81;7394353;19;20018;-68
2022/12/09 01:12:11;;;;;;;49.47;19.60;;;;;;;-0.42;100.00;100286.66;7394635;19;20083;-68
2022/12/09 01:14:39;;;;;;;54.58;18.98;;;;;;;-0.42;100.00;100289.22;7395056;19;20086;-68
2022/12/09 01:17:07;;;;;;;50.72;17.90;;;;;;;-0.45;100.00;100290.03;7392361;19;20078;-68
2022/12/09 01:19:36;;;;;;;51.75;18.05;;;;;;;-0.43;100.00;100288.38;7394050;19;20525;-68
2022/12/09 01:22:04;;;;;;;44.67;17.95;;;;;;;-0.45;100.00;100292.63;7394237;19;20074;-68
2022/12/09 01:24:33;;;;;;;69.38;17.67;;;;;;;-0.43;100.00;100292.63;7399028;19;20548;-68
2022/12/09 01:27:01;;;;;;;69.22;18.60;;;;;;;-0.45;100.00;100305.50;7398855;19;20089;-69
2022/12/09 01:29:32;;;;;;;101.50;19.23;;;;;;;-0.45;100.00;100296.91;7401537;19;20067;-69
2022/12/09 01:32:02;;;;;;;58.72;18.17;;;;;;;-0.46;100.00;100301.19;7401910;19;20021;-68
2022/12/09 01:34:30;;;;;;;149.10;21.23;;;;;;;-0.48;100.00;100296.84;7398723;19;20018;-68
2022/12/09 01:36:59;;;;;;;51.75;18.50;;;;;;;-0.52;100.00;100295.94;7399310;19;20026;-69
2022/12/09 01:39:27;;;;;;;70.13;19.27;;;;;;;-0.54;100.00;100300.22;7399376;19;20006;-68
2022/12/09 01:41:56;;;;;;;52.45;17.65;;;;;;;-0.55;100.00;100307.06;7398245;19;20499;-68
2022/12/09 01:44:26;;;;;;;67.28;17.77;;;;;;;-0.57;100.00;100303.59;7400825;19;20082;-68
2022/12/09 01:46:59;;;;;;;65.80;18.42;;;;;;;-0.58;100.00;100304.44;7399205;19;20022;-68
2022/12/09 01:49:33;;;;;;;69.95;18.70;;;;;;;-0.59;100.00;100301.84;7400666;19;20426;-67
2022/12/09 01:52:07;;;;;;;76.17;18.47;;;;;;;-0.60;100.00;100300.09;7401461;19;20023;-66
2022/12/09 01:54:36;;;;;;;65.63;19.13;;;;;;;-0.61;100.00;100306.94;7397925;19;20513;-67
2022/12/09 01:57:06;;;;;;;65.60;18.90;;;;;;;-0.61;100.00;100299.22;7398350;19;20480;-67
2022/12/09 01:59:35;;;;;;;154.23;21.98;;;;;;;-0.60;100.00;100297.53;7400593;19;20022;-67
2022/12/09 02:02:08;;;;;;;60.58;18.58;;;;;;;-0.61;100.00;100295.78;7400591;19;20031;-67
2022/12/09 02:04:44;;;;;;;64.70;19.52;;;;;;;-0.61;100.00;100300.94;7400225;19;20498;-67
2022/12/09 02:07:13;;;;;;;54.05;18.90;;;;;;;-0.62;100.00;100297.50;7397500;19;20025;-67
2022/12/09 02:09:43;;;;;;;63.50;19.35;;;;;;;-0.63;100.00;100300.03;7400292;19;20018;-67
2022/12/09 02:12:15;;;;;;;84.60;20.75;;;;;;;-0.62;100.00;100289.78;7399892;19;20028;-67
2022/12/09 02:14:51;;;;;;;63.78;20.38;;;;;;;-0.68;100.00;100282.81;7398821;19;20014;-68
2022/12/09 02:17:31;;;;;;;53.60;20.92;;;;;;;-0.63;100.00;100292.31;7397602;19;20031;-69
2022/12/09 02:20:10;;;;;;;48.17;18.65;;;;;;;-0.62;100.00;100289.78;7400400;19;20079;-69
2022/12/09 02:22:42;;;;;;;57.92;20.60;;;;;;;-0.62;100.00;100297.50;7399521;19;20501;-68
2022/12/09 02:25:20;;;;;;;231.80;23.08;;;;;;;-0.60;100.00;100300.09;7400054;19;20022;-69
2022/12/09 02:27:52;;;;;;;87.95;19.02;;;;;;;-0.59;100.00;100296.69;7399274;19;20027;-69
2022/12/09 02:30:22;;;;;;;64.45;19.52;;;;;;;-0.60;100.00;100295.81;7399176;19;20074;-69
2022/12/09 02:33:27;;;;;;;57.10;19.25;;;;;;;-0.59;100.00;100294.97;7399549;19;20023;-69
2022/12/09 02:36:04;;;;;;;82.63;22.10;;;;;;;-0.61;100.00;100293.22;7391709;19;20388;-69
2022/12/09 02:38:34;;;;;;;109.15;22.00;;;;;;;-0.63;100.00;100294.88;7396849;19;20086;-69
2022/12/09 02:41:08;;;;;;;68.43;21.40;;;;;;;-0.65;100.00;100294.88;7398919;19;20022;-69
2022/12/09 02:43:40;;;;;;;65.57;20.00;;;;;;;-0.64;100.00;100300.88;7399022;19;20549;-69
2022/12/09 02:46:11;;;;;;;57.95;22.35;;;;;;;-0.64;100.00;100296.59;7398554;19;20039;-69
2022/12/09 02:48:42;;;;;;;70.97;22.33;;;;;;;-0.63;100.00;100293.19;7399467;19;20396;-69
2022/12/09 02:51:18;;;;;;;68.85;22.02;;;;;;;-0.62;100.00;100289.78;7399280;19;20014;-69
2022/12/09 02:53:50;;;;;;;56.92;21.63;;;;;;;-0.61;100.00;100286.34;7398513;19;20074;-69
2022/12/09 02:56:20;;;;;;;71.28;22.65;;;;;;;-0.61;100.00;100290.63;7397372;19;20491;-69
2022/12/09 02:58:50;;;;;;;66.72;22.98;;;;;;;-0.61;100.00;100288.06;7397459;19;20086;-69
2022/12/09 03:01:23;;;;;;;69.55;23.15;;;;;;;-0.60;100.00;100290.66;7398622;19;20031;-69
2022/12/09 03:03:55;;;;;;;78.90;23.30;;;;;;;-0.59;100.00;100287.25;7397561;19;20046;-69
2022/12/09 03:06:29;;;;;;;105.68;23.42;;;;;;;-0.58;100.00;100285.53;7397425;19;20078;-69
2022/12/09 03:09:04;;;;;;;66.35;24.42;;;;;;;-0.59;100.00;100284.66;7398081;19;20517;-69
2022/12/09 03:11:34;;;;;;;116.88;25.20;;;;;;;-0.57;100.00;100288.16;7398612;19;20031;-69
2022/12/09 03:14:10;;;;;;;68.35;22.17;;;;;;;-0.57;100.00;100293.31;7398077;19;20025;-69
2022/12/09 03:16:41;;;;;;;115.20;25.70;;;;;;;-0.57;100.00;100295.00;7399657;19;20022;-70
2022/12/09 03:19:15;;;;;;;78.90;24.42;;;;;;;-0.59;100.00;100289.81;7400372;19;20018;-70
2022/12/09 03:21:49;;;;;;;68.95;25.08;;;;;;;-0.57;100.00;100293.31;7400001;19;20036;-69
2022/12/09 03:24:22;;;;;;;75.40;23.92;;;;;;;-0.58;100.00;100290.69;7398364;19;20018;-69
2022/12/09 03:26:53;;;;;;;66.15;24.75;;;;;;;-0.57;100.00;100283.00;7395957;19;20088;-69
2022/12/09 03:29:25;;;;;;;65.80;24.23;;;;;;;-0.56;100.00;100283.84;7397251;19;20014;-69
2022/12/09 03:31:56;;;;;;;72.47;25.63;;;;;;;-0.57;100.00;100280.41;7397190;19;20477;-69
2022/12/09 03:34:32;;;;;;;74.38;24.85;;;;;;;-0.55;100.00;100280.44;7397662;19;20022;-69
2022/12/09 03:37:05;;;;;;;117.32;26.02;;;;;;;-0.55;100.00;100280.44;7396030;19;20026;-69
2022/12/09 03:39:37;;;;;;;79.65;26.65;;;;;;;-0.56;100.00;100282.13;7395241;19;20015;-69
2022/12/09 03:42:11;;;;;;;73.07;23.60;;;;;;;-0.55;100.00;100278.72;7397546;19;20035;-69
2022/12/09 03:44:44;;;;;;;64.55;23.88;;;;;;;-0.56;100.00;100282.13;7396888;19;20484;-69
2022/12/09 03:47:12;;;;;;;64.72;22.17;;;;;;;-0.55;100.00;100277.84;7393969;19;20454;-69
2022/12/09 03:49:41;;;;;;;57.95;22.88;;;;;;;-0.54;100.00;100279.59;7397000;19;20022;-68
2022/12/09 03:52:18;;;;;;;62.72;23.92;;;;;;;-0.53;100.00;100278.72;7396934;19;20019;-69
2022/12/09 03:54:49;;;;;;;58.97;24.52;;;;;;;-0.53;100.00;100271.00;7397166;19;20019;-70
2022/12/09 03:57:19;;;;;;;48.10;20.95;;;;;;;-0.52;100.00;100271.03;7394774;19;20021;-69
2022/12/09 03:59:54;;;;;;;51.70;22.75;;;;;;;-0.50;100.00;100268.50;7395656;19;20026;-70
2022/12/09 04:02:23;;;;;;;58.90;23.25;;;;;;;-0.50;100.00;100265.91;7396686;19;20043;-69
2022/12/09 04:04:52;;;;;;;57.78;24.02;;;;;;;-0.50;100.00;100266.75;7396555;19;20043;-70
2022/12/09 04:07:23;;;;;;;52.35;21.27;;;;;;;-0.50;100.00;100255.59;7394684;19;20026;-69
2022/12/09 04:09:51;;;;;;;53.28;21.42;;;;;;;-0.50;100.00;100263.34;7396626;19;20070;-69
2022/12/09 04:12:20;;;;;;;43.95;21.27;;;;;;;-0.50;100.00;100260.75;7396141;19;20019;-69
2022/12/09 04:14:49;;;;;;;59.08;22.90;;;;;;;-0.53;100.00;100248.69;7395846;19;20031;-69
2022/12/09 04:17:17;;;;;;;63.10;22.75;;;;;;;-0.54;100.00;100251.25;7394155;19;20031;-70
2022/12/09 04:19:46;;;;;;;47.50;20.67;;;;;;;-0.57;100.00;100246.91;7394624;19;20086;-69
2022/12/09 04:22:14;;;;;;;46.58;21.33;;;;;;;-0.59;100.00;100248.59;7395575;19;20524;-70
2022/12/09 04:24:46;;;;;;;56.03;22.40;;;;;;;-0.58;100.00;100247.75;7395914;19;20039;-70
2022/12/09 04:27:14;;;;;;;54.55;21.48;;;;;;;-0.59;100.00;100251.16;7394327;19;20115;-69
2022/12/09 04:29:42;;;;;;;69.03;20.85;;;;;;;-0.60;100.00;100252.00;7396056;19;20014;-70
2022/12/09 04:32:11;;;;;;;55.60;21.65;;;;;;;-0.61;100.00;100258.00;7393456;19;20014;-70
2022/12/09 04:34:46;;;;;;;68.32;22.95;;;;;;;-0.64;100.00;100246.75;7393416;19;20373;-69
2022/12/09 04:37:14;;;;;;;144.23;25.63;;;;;;;-0.66;100.00;100251.91;7393010;19;20390;-69
2022/12/09 04:39:43;;;;;;;109.55;22.42;;;;;;;-0.71;100.00;100249.28;7393445;19;20077;-70
2022/12/09 04:42:14;;;;;;;158.20;24.50;;;;;;;-0.74;100.00;100248.34;7394760;19;20485;-69
2022/12/09 04:44:42;;;;;;;105.03;21.67;;;;;;;-0.78;100.00;100254.28;7395614;19;20014;-69
2022/12/09 04:47:11;;;;;;;119.10;21.30;;;;;;;-0.80;100.00;100266.28;7393724;19;20022;-69
2022/12/09 04:49:39;;;;;;;89.47;21.42;;;;;;;-0.83;100.00;100269.66;7393483;19;20022;-69
2022/12/09 04:52:07;;;;;;;82.80;19.30;;;;;;;-0.86;100.00;100267.91;7395188;19;20019;-69
2022/12/09 04:54:36;;;;;;;107.35;22.55;;;;;;;-0.86;100.00;100265.34;7395001;19;20043;-69
2022/12/09 04:57:05;;;;;;;109.65;20.40;;;;;;;-0.86;100.00;100261.88;7393752;19;20035;-69
2022/12/09 04:59:36;;;;;;;131.13;20.85;;;;;;;-0.88;100.00;100264.44;7398105;19;20031;-69
2022/12/09 05:02:04;;;;;;;105.07;19.58;;;;;;;-0.88;100.00;100261.84;7402964;19;20031;-70
2022/12/09 05:04:33;;;;;;;125.43;20.88;;;;;;;-0.89;100.00;100267.84;7402570;19;20102;-69
2022/12/09 05:07:01;;;;;;;97.70;19.13;;;;;;;-0.91;100.00;100256.66;7399192;19;20427;-69
2022/12/09 05:09:30;;;;;;;72.28;18.70;;;;;;;-0.90;100.00;100252.38;7402206;19;20019;-70
2022/12/09 05:11:59;;;;;;;85.85;17.38;;;;;;;-0.90;100.00;100253.22;7401727;19;20481;-69
2022/12/09 05:14:28;;;;;;;73.65;18.52;;;;;;;-0.90;100.00;100255.78;7401627;19;20031;-70
2022/12/09 05:16:59;;;;;;;83.80;22.60;;;;;;;-0.90;100.00;100262.66;7399846;19;20018;-69
2022/12/09 05:19:27;;;;;;;59.08;18.08;;;;;;;-0.90;100.00;100268.69;7399942;19;20019;-69
2022/12/09 05:22:02;;;;;;;105.38;19.23;;;;;;;-0.91;100.00;100266.09;7398038;19;20061;-70
2022/12/09 05:24:32;;;;;;;80.70;16.90;;;;;;;-0.94;100.00;100263.47;7401087;19;20514;-69
2022/12/09 05:27:01;;;;;;;98.70;17.45;;;;;;;-0.95;100.00;100269.44;7399349;19;20078;-69
2022/12/09 05:29:29;;;;;;;99.55;18.05;;;;;;;-0.96;100.00;100275.44;7398760;19;20035;-69
2022/12/09 05:32:00;;;;;;;71.18;18.23;;;;;;;-0.99;100.00;100273.69;7398306;19;20010;-69
2022/12/09 05:34:29;;;;;;;41.67;16.30;;;;;;;-0.99;100.00;100273.69;7401288;19;20014;-69
2022/12/09 05:36:58;;;;;;;55.25;17.98;;;;;;;-0.99;100.00;100271.09;7398853;19;20039;-69
2022/12/09 05:39:27;;;;;;;83.32;18.40;;;;;;;-0.99;100.00;100266.84;7398749;19;20481;-70
2022/12/09 05:41:55;;;;;;;63.40;18.15;;;;;;;-0.99;100.00;100269.41;7400409;19;20090;-70
2022/12/09 05:44:23;;;;;;;72.20;17.85;;;;;;;-0.99;100.00;100263.38;7400933;19;20014;-70
2022/12/09 05:46:52;;;;;;;134.93;19.58;;;;;;;-0.98;100.00;100263.41;7398453;19;20481;-70
2022/12/09 05:49:23;;;;;;;67.70;15.88;;;;;;;-0.97;100.00;100261.72;7400251;19;20019;-70
2022/12/09 05:51:52;;;;;;;74.68;16.35;;;;;;;-0.97;100.00;100272.00;7397353;19;20018;-69
2022/12/09 05:54:21;;;;;;;90.28;15.75;;;;;;;-0.99;100.00;100266.84;7397654;19;20481;-68
2022/12/09 05:56:49;;;;;;;62.78;14.70;;;;;;;-1.03;100.00;100259.88;7399242;19;20048;-70
2022/12/09 05:59:18;;;;;;;56.70;14.63;;;;;;;-1.01;100.00;100265.03;7398222;19;20548;-68
2022/12/09 06:01:46;;;;;;;77.00;17.25;;;;;;;-1.04;100.00;100270.16;7396983;19;20024;-69
2022/12/09 06:04:15;;;;;;;47.03;17.55;;;;;;;-1.04;100.00;100267.59;7397677;19;20018;-69
2022/12/09 06:06:46;;;;;;;45.40;15.20;;;;;;;-1.04;100.00;100267.59;7397201;19;20022;-69
2022/12/09 06:09:15;;;;;;;67.80;15.60;;;;;;;-1.02;100.00;100266.75;7399864;19;20019;-69
2022/12/09 06:11:43;;;;;;;51.72;14.50;;;;;;;-1.05;100.00;100271.88;7399829;19;20094;-70
2022/12/09 06:14:13;;;;;;;93.13;15.50;;;;;;;-1.10;100.00;100270.03;7399650;19;20081;-71
2022/12/09 06:16:41;;;;;;;63.60;14.23;;;;;;;-1.11;100.00;100273.44;7396767;19;20477;-70
2022/12/09 06:19:12;;;;;;;63.10;15.20;;;;;;;-1.12;100.00;100277.75;7396682;19;20026;-69
2022/12/09 06:21:41;;;;;;;57.38;15.38;;;;;;;-1.16;100.00;100276.81;7398849;19;20014;-68
2022/12/09 06:24:12;;;;;;;46.47;15.25;;;;;;;-1.18;100.00;100275.91;7396505;19;20090;-69
2022/12/09 06:26:41;;;;;;;68.03;16.27;;;;;;;-1.18;100.00;100278.47;7397385;19;20019;-70
2022/12/09 06:29:10;;;;;;;114.68;17.13;;;;;;;-1.22;100.00;100287.00;7398959;19;20022;-68
2022/12/09 06:31:39;;;;;;;55.72;14.23;;;;;;;-1.24;100.00;100277.50;7398704;19;20497;-69
2022/12/09 06:34:07;;;;;;;54.22;14.90;;;;;;;-1.27;100.00;100278.31;7395866;19;20481;-69
2022/12/09 06:36:36;;;;;;;60.00;15.35;;;;;;;-1.28;100.00;100279.16;7395466;19;20363;-70
2022/12/09 06:39:06;;;;;;;41.03;14.68;;;;;;;-1.29;100.00;100279.97;7397458;19;20368;-70
2022/12/09 06:41:37;;;;;;;39.40;16.08;;;;;;;-1.29;100.00;100282.56;7395583;19;20031;-69
2022/12/09 06:44:05;;;;;;;52.00;16.05;;;;;;;-1.29;100.00;100274.84;7399162;19;20070;-71
2022/12/09 06:46:34;;;;;;;59.03;16.17;;;;;;;-1.28;100.00;100279.16;7397186;19;20053;-69
2022/12/09 06:49:02;;;;;;;123.95;15.70;;;;;;;-1.29;100.00;100285.13;7398085;19;20018;-69
2022/12/09 06:51:31;;;;;;;51.83;16.20;;;;;;;-1.30;100.00;100273.13;7396044;19;20430;-69
2022/12/09 06:53:59;;;;;;;57.53;15.68;;;;;;;-1.30;100.00;100273.13;7398234;19;20014;-69
2022/12/09 06:56:28;;;;;;;48.28;15.50;;;;;;;-1.29;100.00;100277.41;7396819;19;20027;-69
2022/12/09 06:58:59;;;;;;;55.38;16.02;;;;;;;-1.28;100.00;100276.56;7397724;19;20022;-70
2022/12/09 07:01:28;;;;;;;36.97;15.40;;;;;;;-1.29;100.00;100277.41;7398806;19;20015;-71
2022/12/09 07:03:58;;;;;;;77.32;17.30;;;;;;;-1.28;100.00;100275.72;7396896;19;20035;-71
2022/12/09 07:06:30;;;;;;;55.25;17.27;;;;;;;-1.27;100.00;100269.75;7396376;19;20367;-71
2022/12/09 07:09:00;;;;;;;45.70;17.10;;;;;;;-1.26;100.00;100281.75;7395444;19;20521;-71
2022/12/09 07:11:29;;;;;;;43.22;16.63;;;;;;;-1.27;100.00;100275.75;7398209;19;20363;-70
2022/12/09 07:14:00;;;;;;;43.67;18.48;;;;;;;-1.28;100.00;100276.56;7398039;19;20018;-71
2022/12/09 07:16:29;;;;;;;48.53;17.65;;;;;;;-1.28;100.00;100284.31;7395788;19;20042;-70
2022/12/09 07:18:58;;;;;;;54.90;16.75;;;;;;;-1.28;100.00;100280.88;7397618;19;20011;-71
2022/12/09 07:21:27;;;;;;;46.20;15.40;;;;;;;-1.29;100.00;100279.97;7395726;19;20511;-71
2022/12/09 07:23:56;;;;;;;53.45;16.13;;;;;;;-1.28;100.00;100286.88;7397629;19;20098;-70
2022/12/09 07:26:24;;;;;;;40.20;15.93;;;;;;;-1.25;100.00;100288.63;7396464;19;20019;-71
2022/12/09 07:28:53;;;;;;;59.08;18.92;;;;;;;-1.28;100.00;100284.31;7396666;19;20033;-69
2022/12/09 07:31:26;;;;;;;46.60;17.15;;;;;;;-1.25;100.00;100281.81;7396921;19;20371;-71
2022/12/09 07:33:56;;;;;;;49.17;18.77;;;;;;;-1.24;100.00;100272.34;7395806;19;20022;-70
2022/12/09 07:36:26;;;;;;;36.95;16.45;;;;;;;-1.25;100.00;100281.81;7396108;19;20031;-71
2022/12/09 07:38:56;;;;;;;44.88;16.52;;;;;;;-1.23;100.00;100285.25;7396031;19;20029;-70
2022/12/09 07:41:25;;;;;;;42.78;16.00;;;;;;;-1.23;100.00;100287.81;7395431;19;20044;-69
2022/12/09 07:43:54;;;;;;;92.55;16.20;;;;;;;-1.21;100.00;100299.03;7395055;19;20037;-70
2022/12/09 07:46:27;;;;;;;41.05;15.77;;;;;;;-1.22;100.00;100291.28;7396269;19;20026;-70
2022/12/09 07:48:57;;;;;;;34.97;14.65;;;;;;;-1.20;100.00;100292.16;7396775;19;20018;-70
2022/12/09 07:51:25;;;;;;;42.80;15.93;;;;;;;-1.19;100.00;100292.22;7394601;19;20044;-72
2022/12/09 07:53:54;;;;;;;58.42;18.85;;;;;;;-1.17;100.00;100289.66;7396288;19;20047;-70
2022/12/09 07:56:24;;;;;;;43.80;14.60;;;;;;;-1.14;100.00;100300.00;7395973;19;20015;-71
2022/12/09 07:58:55;;;;;;;78.70;19.45;;;;;;;-1.14;100.00;100297.44;7396408;19;20037;-70
2022/12/09 08:01:29;;;;;;;35.33;13.05;;;;;;;-1.17;100.00;100299.97;7394973;19;20018;-69
2022/12/09 08:04:00;;;;;;;29.05;12.40;;;;;;;-1.20;100.00;100299.88;7396637;19;20031;-70
2022/12/09 08:06:30;;;;;;;36.80;12.65;;;;;;;-1.23;100.00;100305.84;7395518;19;20093;-71
2022/12/09 08:09:00;;;;;;;35.78;13.68;;;;;;;-1.22;100.00;100302.44;7396038;19;20018;-71
2022/12/09 08:11:31;;;;;;;56.50;14.27;;;;;;;-1.22;100.00;100310.16;7395864;19;20078;-70
2022/12/09 08:14:01;;;;;;;31.42;12.43;;;;;;;-1.21;100.00;100311.91;7396369;19;20026;-71
2022/12/09 08:16:32;;;;;;;33.75;12.43;;;;;;;-1.22;100.00;100310.16;7394563;19;20027;-71
2022/12/09 08:19:01;;;;;;;38.63;12.93;;;;;;;-1.20;100.00;100318.78;7395812;19;20018;-71
2022/12/09 08:21:31;;;;;;;30.25;13.48;;;;;;;-1.19;100.00;100317.06;7393445;19;20018;-70
2022/12/09 08:24:02;;;;;;;24.73;11.38;;;;;;;-1.21;100.00;100319.63;7396058;19;20098;-71
2022/12/09 08:26:33;;;;;;;39.00;14.75;;;;;;;-1.20;100.00;100320.47;7394252;19;20502;-71
2022/12/09 08:29:01;;;;;;;39.28;19.27;;;;;;;-1.20;100.00;100320.47;7395054;19;20074;-71
2022/12/09 08:31:32;;;;;;;33.83;12.85;;;;;;;-1.18;100.00;100318.81;7393694;19;20031;-71
2022/12/09 08:34:04;;;;;;;32.30;11.90;;;;;;;-1.19;100.00;100317.06;7395446;19;20098;-71
2022/12/09 08:36:33;;;;;;;38.03;10.80;;;;;;;-1.19;100.00;100314.50;7394350;19;20035;-71
2022/12/09 08:39:03;;;;;;;40.03;10.98;;;;;;;-1.17;100.00;100312.84;7394565;19;20023;-71
2022/12/09 08:41:36;;;;;;;25.10;11.73;;;;;;;-1.18;100.00;100319.66;7394769;19;20014;-73
2022/12/09 08:44:07;;;;;;;64.03;11.23;;;;;;;-1.15;100.00;100312.03;7395316;19;20022;-70
2022/12/09 08:46:39;;;;;;;50.13;12.48;;;;;;;-1.11;100.00;100312.97;7393600;19;20039;-70
2022/12/09 08:49:09;;;;;;;71.28;14.52;;;;;;;-1.06;100.00;100318.16;7393826;19;20029;-69
2022/12/09 08:51:37;;;;;;;41.60;12.93;;;;;;;-1.05;100.00;100315.66;7392835;19;20032;-70
2022/12/09 08:54:07;;;;;;;54.08;13.38;;;;;;;-1.02;100.00;100313.13;7394832;19;20018;-71
2022/12/09 08:56:35;;;;;;;31.15;11.90;;;;;;;-1.03;100.00;100311.38;7392758;19;20026;-71
2022/12/09 08:59:05;;;;;;;48.28;13.75;;;;;;;-1.01;100.00;100316.53;7394016;19;20011;-72
2022/12/09 09:01:34;;;;;;;85.43;14.55;;;;;;;-0.96;100.00;100319.22;7392290;19;20028;-70
2022/12/09 09:04:07;;;;;;;49.42;12.98;;;;;;;-0.94;100.00;100320.97;7393879;19;20375;-69
2022/12/09 09:06:36;;;;;;;30.50;12.88;;;;;;;-0.95;100.00;100320.97;7392370;19;20064;-70
2022/12/09 09:09:05;;;;;;;29.58;13.68;;;;;;;-0.90;100.00;100316.75;7393935;19;20011;-70
2022/12/09 09:11:34;;;;;;;40.10;13.60;;;;;;;-0.88;100.00;100313.38;7394826;19;20018;-71
2022/12/09 09:14:05;;;;;;;36.63;13.65;;;;;;;-0.85;100.00;100317.72;7393880;19;20022;-71
2022/12/09 09:16:34;;;;;;;49.72;13.50;;;;;;;-0.83;100.00;100316.88;7392976;19;20031;-70
2022/12/09 09:19:05;;;;;;;46.72;13.88;;;;;;;-0.80;100.00;100317.78;7393799;19;20019;-70
2022/12/09 09:21:35;;;;;;;37.63;13.35;;;;;;;-0.79;100.00;100322.13;7392428;19;20022;-71
2022/12/09 09:24:04;;;;;;;50.70;14.15;;;;;;;-0.77;100.00;100325.56;7393484;19;20018;-71
2022/12/09 09:26:32;;;;;;;36.55;12.68;;;;;;;-0.76;100.00;100315.28;7392335;19;20027;-71
2022/12/09 09:29:01;;;;;;;36.85;13.32;;;;;;;-0.74;100.00;100318.75;7391300;19;20015;-71
2022/12/09 09:31:29;;;;;;;48.97;23.20;;;;;;;-0.74;100.00;100318.75;7392909;19;20519;-70
2022/12/09 09:33:58;;;;;;;19.95;11.85;;;;;;;-0.74;100.00;100321.34;7393014;19;20511;-71
2022/12/09 09:36:29;;;;;;;20.60;11.10;;;;;;;-0.75;100.00;100322.19;7392344;19;20023;-71
2022/12/09 09:38:59;;;;;;;30.60;11.10;;;;;;;-0.75;100.00;100319.59;7392633;19;20452;-71
2022/12/09 09:41:43;;;;;;;28.58;11.52;;;;;;;-0.78;100.00;100324.72;7391654;19;20024;-71
2022/12/09 09:44:20;;;;;;;20.38;10.57;;;;;;;-0.80;100.00;100313.50;7394212;19;20445;-70
2022/12/09 09:46:51;;;;;;;34.10;10.40;;;;;;;-0.79;100.00;100317.81;7398700;19;20035;-68
2022/12/09 09:49:26;;;;;;;39.83;11.43;;;;;;;-0.80;100.00;100322.94;7400332;19;20023;-71
2022/12/09 09:51:57;;;;;;;24.52;9.02;;;;;;;-0.84;100.00;100319.44;7397961;19;20040;-70
2022/12/09 09:54:26;;;;;;;29.67;10.38;;;;;;;-0.88;100.00;100315.94;7400329;19;20491;-73
2022/12/09 09:57:23;;;;;;;18.10;8.90;;;;;;;-0.91;100.00;100313.31;7401290;19;20022;-71
2022/12/09 10:00:03;;;;;;;21.17;10.02;;;;;;;-0.91;100.00;100318.47;7403982;19;20010;-72
2022/12/09 10:02:46;;;;;;;16.85;9.23;;;;;;;-0.90;100.00;100307.31;7400393;19;20014;-71
2022/12/09 10:05:23;;;;;;;25.52;9.60;;;;;;;-0.88;100.00;100299.63;7400366;19;20078;-71
2022/12/09 10:07:58;;;;;;;42.00;10.65;;;;;;;-0.86;100.00;100298.81;7400414;19;20019;-71
2022/12/09 10:10:40;;;;;;;27.13;10.00;;;;;;;-0.86;100.00;100295.34;7400253;19;20427;-71
2022/12/09 10:13:22;;;;;;;28.55;11.93;;;;;;;-0.84;100.00;100293.69;7399761;19;20025;-70
2022/12/09 10:16:00;;;;;;;22.38;11.32;;;;;;;-0.79;100.00;100289.47;7397395;19;20035;-71
2022/12/09 10:18:34;;;;;;;24.90;13.27;;;;;;;-0.73;100.00;100287.00;7400326;19;20014;-71
2022/12/09 10:21:02;;;;;;;;;;;;;;;-0.68;100.00;100279.38;7398352;19;20018;-71
2022/12/09 10:23:34;;;;;;;21.60;11.82;;;;;;;-0.64;100.00;100285.41;7398679;19;20316;-71
2022/12/09 10:26:07;;;;;;;25.58;11.63;;;;;;;-0.58;100.00;100278.69;7399831;19;20027;-69
2022/12/09 10:28:38;;;;;;;62.17;10.77;;;;;;;-0.56;100.00;100284.69;7397002;19;20086;-70
2022/12/09 10:31:07;;;;;;;17.08;9.23;;;;;;;-0.57;100.00;100277.84;7398642;19;20461;-70
2022/12/09 10:33:43;;;;;;;17.95;10.77;;;;;;;-0.55;100.00;100280.44;7398806;19;20009;-70
2022/12/09 10:36:24;;;;;;;18.00;9.65;;;;;;;-0.54;100.00;100277.03;7398397;19;20035;-69
2022/12/09 10:38:55;;;;;;;15.00;9.15;;;;;;;-0.53;100.00;100279.63;7397902;19;20496;-70
2022/12/09 10:44:29;;;;;;;17.40;8.90;;;;;;;-0.52;100.00;100276.19;7399197;19;20010;-69
2022/12/09 10:46:59;;;;;;;18.75;9.75;;;;;;;-0.48;100.00;100273.66;7396541;19;20031;-69
2022/12/09 10:49:28;;;;;;;21.42;11.13;;;;;;;-0.47;100.00;100265.94;7398544;19;20163;-69
2022/12/09 10:51:57;;;;;;;17.02;10.07;;;;;;;-0.43;100.00;100266.88;7396283;19;20039;-69
2022/12/09 10:54:38;;;;;;;16.80;9.50;;;;;;;-0.41;100.00;100265.19;7398721;19;20043;-69
2022/12/09 10:57:21;;;;;;;27.17;14.73;;;;;;;-0.37;100.00;100256.66;7394280;19;20485;-71
2022/12/09 11:00:04;;;;;;;16.52;9.13;;;;;;;-0.39;100.00;100258.31;7398119;19;20019;-69
2022/12/09 11:02:34;;;;;;;14.68;8.48;;;;;;;-0.39;100.00;100261.78;7395996;19;20032;-70
2022/12/09 11:05:24;;;;;;;14.57;9.25;;;;;;;-0.35;100.00;100262.72;7397884;19;20011;-69
2022/12/09 11:07:54;;;;;;;27.80;15.65;;;;;;;-0.31;100.00;100251.59;7397941;19;20342;-70
2022/12/09 11:10:27;;;;;;;15.52;9.20;;;;;;;-0.29;100.00;100249.91;7397184;19;20031;-70
2022/12/09 11:13:02;;;;;;;17.20;9.77;;;;;;;-0.28;100.00;100253.34;7397812;19;20014;-69
2022/12/09 11:15:36;;;;;;;14.93;9.70;;;;;;;-0.27;100.00;100245.63;7397539;19;20024;-69
2022/12/09 11:18:08;;;;;;;13.75;8.70;;;;;;;-0.28;100.00;100243.88;7397483;19;20015;-70
2022/12/09 11:20:37;;;;;;;16.67;9.35;;;;;;;-0.33;100.00;100232.66;7398149;19;20103;-70